Time,TemperatureF,DewpointF,PressureIn,WindDirection,WindDirectionDegrees,WindSpeedMPH,WindSpeedGustMPH,Humidity,HourlyPrecipIn,Conditions,Clouds,dailyrainin,SoftwareType,DateUTC
2013-02-25 00:00:00,66.6,64.8,29.85,South,182,0.0,0.0,94,0.00,,,0.00,Wunderground PWS Mod,2013-02-25 05:00:00,
2013-02-25 00:02:00,66.6,64.8,29.85,South,182,0.0,0.0,94,0.00,,,0.00,Wunderground PWS Mod,2013-02-25 05:02:00,
2013-02-25 00:04:00,66.4,64.6,29.86,South,182,0.0,0.0,94,0.00,,,0.00,Wunderground PWS Mod,2013-02-25 05:04:00,
2013-02-25 00:10:00,66.4,64.6,29.86,South,182,0.0,0.0,94,0.00,,,0.00,Wunderground PWS Mod,2013-02-25 05:10:00,
2013-02-25 00:16:00,66.3,64.5,29.86,South,182,0.0,0.0,94,0.00,,,0.00,Wunderground PWS Mod,2013-02-25 05:16:00,
2013-02-25 00:22:00,66.1,64.3,29.86,South,182,0.0,0.0,94,0.00,,,0.00,Wunderground PWS Mod,2013-02-25 05:22:00,
2013-02-25 00:28:00,66.1,64.3,29.86,South,182,0.0,0.0,94,0.00,,,0.00,Wunderground PWS Mod,2013-02-25 05:28:00,
2013-02-25 00:32:00,66.0,64.2,29.86,N/A,-737280,0.0,0.0,94,0.00,,,0.00,Wunderground PWS Mod,2013-02-25 05:32:00,
2013-02-25 00:34:00,66.1,64.3,29.87,South,182,0.0,0.0,94,0.00,,,0.00,Wunderground PWS Mod,2013-02-25 05:34:00,
2013-02-25 00:40:00,66.0,64.2,29.87,South,182,0.0,0.0,94,0.00,,,0.00,Wunderground PWS Mod,2013-02-25 05:40:00,
2013-02-25 00:46:00,66.0,64.2,29.87,South,182,0.0,0.0,94,0.00,,,0.00,Wunderground PWS Mod,2013-02-25 05:46:00,
2013-02-25 00:52:00,66.0,64.5,29.86,South,182,0.0,0.0,95,0.00,,,0.00,Wunderground PWS Mod,2013-02-25 05:52:00,
2013-02-25 00:58:00,66.1,64.6,29.86,South,182,0.0,0.0,95,0.00,,,0.00,Wunderground PWS Mod,2013-02-25 05:58:00,
2013-02-25 01:04:00,66.3,64.8,29.85,South,182,0.0,0.0,95,0.00,,,0.00,Wunderground PWS Mod,2013-02-25 06:04:00,
2013-02-25 01:08:00,66.6,65.1,29.84,N/A,-737280,0.0,0.0,95,0.00,,,0.00,Wunderground PWS Mod,2013-02-25 06:08:00,
2013-02-25 01:10:00,66.4,64.9,29.85,South,182,0.0,0.0,95,0.00,,,0.00,Wunderground PWS Mod,2013-02-25 06:10:00,
2013-02-25 01:16:00,66.4,64.9,29.85,South,182,0.0,0.0,95,0.00,,,0.00,Wunderground PWS Mod,2013-02-25 06:16:00,
2013-02-25 01:22:00,66.6,65.1,29.84,South,182,0.0,0.0,95,0.00,,,0.00,Wunderground PWS Mod,2013-02-25 06:22:00,
2013-02-25 01:28:00,66.6,65.1,29.84,South,182,0.0,0.0,95,0.00,,,0.00,Wunderground PWS Mod,2013-02-25 06:28:00,
2013-02-25 01:34:00,66.6,65.1,29.84,South,182,0.0,0.0,95,0.00,,,0.00,Wunderground PWS Mod,2013-02-25 06:34:00,
2013-02-25 01:40:00,66.8,65.3,29.84,South,182,0.0,0.0,95,0.00,,,0.00,Wunderground PWS Mod,2013-02-25 06:40:00,
2013-02-25 01:46:00,66.6,65.1,29.84,South,182,0.0,0.0,95,0.00,,,0.00,Wunderground PWS Mod,2013-02-25 06:46:00,
2013-02-25 01:52:00,66.6,65.1,29.83,South,182,0.0,0.0,95,0.00,,,0.00,Wunderground PWS Mod,2013-02-25 06:52:00,
2013-02-25 01:58:00,66.4,64.9,29.83,South,182,0.0,0.0,95,0.00,,,0.00,Wunderground PWS Mod,2013-02-25 06:58:00,
2013-02-25 02:04:00,66.3,64.8,29.82,South,182,0.0,0.0,95,0.00,,,0.00,Wunderground PWS Mod,2013-02-25 07:04:00,
2013-02-25 02:10:00,66.3,64.8,29.82,South,182,0.0,0.0,95,0.00,,,0.00,Wunderground PWS Mod,2013-02-25 07:10:00,
2013-02-25 02:16:00,66.1,64.6,29.82,South,182,0.0,0.0,95,0.00,,,0.00,Wunderground PWS Mod,2013-02-25 07:16:00,
2013-02-25 02:18:00,65.8,64.3,29.83,N/A,-737280,0.0,0.0,95,0.00,,,0.00,Wunderground PWS Mod,2013-02-25 07:18:00,
2013-02-25 02:22:00,66.0,64.5,29.83,South,182,0.0,0.0,95,0.00,,,0.00,Wunderground PWS Mod,2013-02-25 07:22:00,
2013-02-25 02:28:00,65.8,64.3,29.83,South,182,0.0,0.0,95,0.00,,,0.00,Wunderground PWS Mod,2013-02-25 07:28:00,
2013-02-25 02:34:00,65.8,64.3,29.83,South,182,0.0,0.0,95,0.00,,,0.00,Wunderground PWS Mod,2013-02-25 07:34:00,
2013-02-25 02:40:00,65.6,64.1,29.83,South,182,0.0,0.0,95,0.00,,,0.00,Wunderground PWS Mod,2013-02-25 07:40:00,
2013-02-25 02:44:00,65.5,64.0,29.82,N/A,-737280,0.0,0.0,95,0.00,,,0.00,Wunderground PWS Mod,2013-02-25 07:44:00,
2013-02-25 02:46:00,65.6,64.1,29.83,South,182,0.0,0.0,95,0.00,,,0.00,Wunderground PWS Mod,2013-02-25 07:46:00,
2013-02-25 02:52:00,65.5,64.0,29.82,South,182,0.0,0.0,95,0.00,,,0.00,Wunderground PWS Mod,2013-02-25 07:52:00,
2013-02-25 02:58:00,65.5,64.0,29.82,South,182,0.0,0.0,95,0.00,,,0.00,Wunderground PWS Mod,2013-02-25 07:58:00,
2013-02-25 03:04:00,65.5,64.0,29.82,South,182,0.0,0.0,95,0.00,,,0.00,Wunderground PWS Mod,2013-02-25 08:04:00,
2013-02-25 03:10:00,65.3,63.8,29.82,South,182,0.0,0.0,95,0.00,,,0.00,Wunderground PWS Mod,2013-02-25 08:10:00,
2013-02-25 03:16:00,65.2,63.7,29.82,South,182,0.0,0.0,95,0.00,,,0.00,Wunderground PWS Mod,2013-02-25 08:16:00,
2013-02-25 03:22:00,65.2,63.7,29.83,South,182,0.0,0.0,95,0.00,,,0.00,Wunderground PWS Mod,2013-02-25 08:22:00,
2013-02-25 03:28:00,65.2,63.7,29.83,South,182,0.0,0.0,95,0.00,,,0.00,Wunderground PWS Mod,2013-02-25 08:28:00,
2013-02-25 03:34:00,65.0,63.5,29.83,South,182,0.0,0.0,95,0.00,,,0.00,Wunderground PWS Mod,2013-02-25 08:34:00,
2013-02-25 03:40:00,65.0,63.5,29.83,South,182,0.0,0.0,95,0.00,,,0.00,Wunderground PWS Mod,2013-02-25 08:40:00,
2013-02-25 03:44:00,64.5,63.0,29.82,N/A,-737280,0.0,0.0,95,0.00,,,0.00,Wunderground PWS Mod,2013-02-25 08:44:00,
2013-02-25 03:46:00,64.8,63.3,29.83,South,182,0.0,0.0,95,0.00,,,0.00,Wunderground PWS Mod,2013-02-25 08:46:00,
2013-02-25 03:52:00,64.7,63.2,29.82,South,182,0.0,0.0,95,0.00,,,0.00,Wunderground PWS Mod,2013-02-25 08:52:00,
2013-02-25 03:58:00,64.7,63.2,29.82,South,182,0.0,0.0,95,0.00,,,0.00,Wunderground PWS Mod,2013-02-25 08:58:00,
2013-02-25 04:04:00,64.5,63.0,29.81,South,182,0.0,0.0,95,0.00,,,0.00,Wunderground PWS Mod,2013-02-25 09:04:00,
2013-02-25 04:06:00,64.2,62.7,29.81,N/A,-737280,0.0,0.0,95,0.00,,,0.00,Wunderground PWS Mod,2013-02-25 09:06:00,
2013-02-25 04:10:00,64.3,62.8,29.81,South,182,0.0,0.0,95,0.00,,,0.00,Wunderground PWS Mod,2013-02-25 09:10:00,
2013-02-25 04:16:00,64.3,62.8,29.81,South,182,0.0,0.0,95,0.00,,,0.00,Wunderground PWS Mod,2013-02-25 09:16:00,
2013-02-25 04:22:00,64.2,62.7,29.81,South,182,0.0,0.0,95,0.00,,,0.00,Wunderground PWS Mod,2013-02-25 09:22:00,
2013-02-25 04:28:00,64.0,62.5,29.81,South,182,0.0,0.0,95,0.00,,,0.00,Wunderground PWS Mod,2013-02-25 09:28:00,
2013-02-25 04:32:00,63.5,62.0,29.82,N/A,-737280,0.0,0.0,95,0.00,,,0.00,Wunderground PWS Mod,2013-02-25 09:32:00,
2013-02-25 04:34:00,64.0,62.5,29.81,South,182,0.0,0.0,95,0.00,,,0.00,Wunderground PWS Mod,2013-02-25 09:34:00,
2013-02-25 04:40:00,63.9,62.4,29.81,South,182,0.0,0.0,95,0.00,,,0.00,Wunderground PWS Mod,2013-02-25 09:40:00,
2013-02-25 04:46:00,63.7,62.2,29.81,South,182,0.0,0.0,95,0.00,,,0.00,Wunderground PWS Mod,2013-02-25 09:46:00,
2013-02-25 04:52:00,63.5,62.0,29.82,South,182,0.0,0.0,95,0.00,,,0.00,Wunderground PWS Mod,2013-02-25 09:52:00,
2013-02-25 04:58:00,63.4,61.9,29.82,South,182,0.0,0.0,95,0.00,,,0.00,Wunderground PWS Mod,2013-02-25 09:58:00,
2013-02-25 05:04:00,63.2,61.7,29.81,South,182,0.0,0.0,95,0.00,,,0.00,Wunderground PWS Mod,2013-02-25 10:04:00,
2013-02-25 05:10:00,63.2,61.7,29.81,South,182,0.0,0.0,95,0.00,,,0.00,Wunderground PWS Mod,2013-02-25 10:10:00,
2013-02-25 05:16:00,63.1,61.6,29.81,South,182,0.0,0.0,95,0.00,,,0.00,Wunderground PWS Mod,2013-02-25 10:16:00,
2013-02-25 05:22:00,62.9,61.4,29.80,South,182,0.0,0.0,95,0.00,,,0.00,Wunderground PWS Mod,2013-02-25 10:22:00,
2013-02-25 05:28:00,62.7,61.2,29.80,South,182,0.0,0.0,95,0.00,,,0.00,Wunderground PWS Mod,2013-02-25 10:28:00,
2013-02-25 05:34:00,62.7,61.2,29.80,South,182,0.0,0.0,95,0.00,,,0.00,Wunderground PWS Mod,2013-02-25 10:34:00,
2013-02-25 05:40:00,62.6,61.1,29.80,South,182,0.0,0.0,95,0.00,,,0.00,Wunderground PWS Mod,2013-02-25 10:40:00,
2013-02-25 05:46:00,62.4,60.9,29.80,South,182,0.0,0.0,95,0.00,,,0.00,Wunderground PWS Mod,2013-02-25 10:46:00,
2013-02-25 05:52:00,62.4,60.9,29.79,South,182,0.0,0.0,95,0.00,,,0.00,Wunderground PWS Mod,2013-02-25 10:52:00,
2013-02-25 05:58:00,62.3,60.8,29.79,South,182,0.0,0.0,95,0.00,,,0.00,Wunderground PWS Mod,2013-02-25 10:58:00,
2013-02-25 06:00:00,62.3,60.8,29.81,N/A,-737280,0.0,0.0,95,0.00,,,0.00,Wunderground PWS Mod,2013-02-25 11:00:00,
2013-02-25 06:04:00,62.3,60.8,29.80,South,182,0.0,0.0,95,0.00,,,0.00,Wunderground PWS Mod,2013-02-25 11:04:00,
2013-02-25 06:10:00,62.3,60.8,29.80,South,182,0.0,0.0,95,0.00,,,0.00,Wunderground PWS Mod,2013-02-25 11:10:00,
2013-02-25 06:16:00,62.3,60.8,29.80,South,182,0.0,0.0,95,0.00,,,0.00,Wunderground PWS Mod,2013-02-25 11:16:00,
2013-02-25 06:22:00,62.3,61.1,29.81,South,182,0.0,0.0,96,0.00,,,0.00,Wunderground PWS Mod,2013-02-25 11:22:00,
2013-02-25 06:24:00,62.3,61.1,29.81,N/A,-737280,0.0,0.0,96,0.00,,,0.00,Wunderground PWS Mod,2013-02-25 11:24:00,
2013-02-25 06:28:00,62.3,61.1,29.81,South,182,0.0,0.0,96,0.00,,,0.00,Wunderground PWS Mod,2013-02-25 11:28:00,
2013-02-25 06:34:00,62.3,61.1,29.81,South,182,0.0,0.0,96,0.00,,,0.00,Wunderground PWS Mod,2013-02-25 11:34:00,
2013-02-25 06:40:00,62.3,61.1,29.81,South,182,0.0,0.0,96,0.00,,,0.00,Wunderground PWS Mod,2013-02-25 11:40:00,
2013-02-25 06:46:00,62.3,61.1,29.81,South,182,0.0,0.0,96,0.00,,,0.00,Wunderground PWS Mod,2013-02-25 11:46:00,
2013-02-25 06:50:00,62.7,61.5,29.82,N/A,-737280,0.0,0.0,96,0.00,,,0.00,Wunderground PWS Mod,2013-02-25 11:50:00,
2013-02-25 06:52:00,62.3,61.1,29.80,South,182,0.0,0.0,96,0.00,,,0.00,Wunderground PWS Mod,2013-02-25 11:52:00,
2013-02-25 06:58:00,62.4,61.2,29.80,South,182,0.0,0.0,96,0.00,,,0.00,Wunderground PWS Mod,2013-02-25 11:58:00,
2013-02-25 07:04:00,62.6,61.4,29.82,South,182,0.0,0.0,96,0.00,,,0.00,Wunderground PWS Mod,2013-02-25 12:04:00,
2013-02-25 07:10:00,62.7,61.5,29.82,South,182,0.0,0.0,96,0.00,,,0.00,Wunderground PWS Mod,2013-02-25 12:10:00,
2013-02-25 07:16:00,62.9,61.7,29.82,South,182,0.0,0.0,96,0.00,,,0.00,Wunderground PWS Mod,2013-02-25 12:16:00,
2013-02-25 07:22:00,63.2,62.0,29.82,South,182,0.0,0.0,96,0.00,,,0.00,Wunderground PWS Mod,2013-02-25 12:22:00,
2013-02-25 07:28:00,63.5,62.3,29.82,South,182,0.0,0.0,96,0.00,,,0.00,Wunderground PWS Mod,2013-02-25 12:28:00,
2013-02-25 07:34:00,64.0,62.8,29.83,South,182,0.0,0.0,96,0.00,,,0.00,Wunderground PWS Mod,2013-02-25 12:34:00,
2013-02-25 07:40:00,64.3,63.1,29.83,South,182,0.0,0.0,96,0.00,,,0.00,Wunderground PWS Mod,2013-02-25 12:40:00,
2013-02-25 07:42:00,66.2,65.0,29.85,N/A,-737280,0.0,0.0,96,0.00,,,0.00,Wunderground PWS Mod,2013-02-25 12:42:00,
2013-02-25 07:48:00,65.0,63.8,29.85,South,182,0.0,0.0,96,0.00,,,0.00,Wunderground PWS Mod,2013-02-25 12:48:00,
2013-02-25 07:54:00,65.6,64.4,29.85,South,182,0.0,0.0,96,0.00,,,0.00,Wunderground PWS Mod,2013-02-25 12:54:00,
2013-02-25 08:02:00,66.3,65.4,29.85,South,182,0.0,0.0,97,0.00,,,0.00,Wunderground PWS Mod,2013-02-25 13:02:00,
2013-02-25 08:08:00,66.8,65.9,29.85,South,182,0.0,0.0,97,0.00,,,0.00,Wunderground PWS Mod,2013-02-25 13:08:00,
2013-02-25 08:14:00,67.3,66.1,29.85,South,182,0.0,0.0,96,0.00,,,0.00,Wunderground PWS Mod,2013-02-25 13:14:00,
2013-02-25 08:16:00,68.9,67.7,29.85,N/A,-737280,0.0,0.0,96,0.00,,,0.00,Wunderground PWS Mod,2013-02-25 13:16:00,
2013-02-25 08:20:00,67.9,66.7,29.85,South,182,0.0,0.0,96,0.00,,,0.00,Wunderground PWS Mod,2013-02-25 13:20:00,
2013-02-25 08:26:00,68.4,67.2,29.85,South,182,0.0,0.0,96,0.00,,,0.00,Wunderground PWS Mod,2013-02-25 13:26:00,
2013-02-25 08:32:00,68.9,67.7,29.85,South,182,0.0,0.0,96,0.00,,,0.00,Wunderground PWS Mod,2013-02-25 13:32:00,
2013-02-25 08:38:00,69.3,68.1,29.85,South,182,0.0,0.0,96,0.00,,,0.00,Wunderground PWS Mod,2013-02-25 13:38:00,
2013-02-25 08:44:00,69.8,68.6,29.85,South,182,0.0,0.0,96,0.00,,,0.00,Wunderground PWS Mod,2013-02-25 13:44:00,
2013-02-25 08:48:00,71.6,70.7,29.85,N/A,-737280,0.0,0.0,97,0.00,,,0.00,Wunderground PWS Mod,2013-02-25 13:48:00,
2013-02-25 08:50:00,70.3,69.4,29.85,South,182,0.0,0.0,97,0.00,,,0.00,Wunderground PWS Mod,2013-02-25 13:50:00,
2013-02-25 08:56:00,70.6,69.7,29.85,South,182,0.0,0.0,97,0.00,,,0.00,Wunderground PWS Mod,2013-02-25 13:56:00,
2013-02-25 09:02:00,71.3,70.1,29.85,South,182,0.0,0.0,96,0.00,,,0.00,Wunderground PWS Mod,2013-02-25 14:02:00,
2013-02-25 09:08:00,71.8,70.9,29.85,South,182,0.0,0.0,97,0.00,,,0.00,Wunderground PWS Mod,2013-02-25 14:08:00,
2013-02-25 09:14:00,73.0,71.8,29.85,N/A,-737280,0.0,0.0,96,0.00,,,0.00,Wunderground PWS Mod,2013-02-25 14:14:00,
2013-02-25 09:16:00,72.3,71.1,29.85,South,182,0.0,0.0,96,0.00,,,0.00,Wunderground PWS Mod,2013-02-25 14:16:00,
2013-02-25 09:22:00,72.5,71.3,29.85,South,182,0.0,0.0,96,0.00,,,0.00,Wunderground PWS Mod,2013-02-25 14:22:00,
2013-02-25 09:28:00,72.8,71.6,29.85,East,97,0.0,1.0,96,0.00,,,0.00,Wunderground PWS Mod,2013-02-25 14:28:00,
2013-02-25 09:34:00,73.0,71.8,29.85,WSW,241,0.0,1.0,96,0.00,,,0.00,Wunderground PWS Mod,2013-02-25 14:34:00,
2013-02-25 09:40:00,73.3,72.1,29.85,WSW,242,0.0,3.0,96,0.00,,,0.00,Wunderground PWS Mod,2013-02-25 14:40:00,
2013-02-25 09:46:00,73.5,72.3,29.85,WSW,242,0.0,1.0,96,0.00,,,0.00,Wunderground PWS Mod,2013-02-25 14:46:00,
2013-02-25 09:52:00,73.9,72.7,29.85,WSW,241,0.0,2.0,96,0.00,,,0.00,Wunderground PWS Mod,2013-02-25 14:52:00,
2013-02-25 09:54:00,75.1,73.6,29.85,N/A,-737280,0.0,0.0,95,0.00,,,0.00,Wunderground PWS Mod,2013-02-25 14:54:00,
2013-02-25 09:58:00,74.2,72.7,29.85,WSW,248,0.0,1.0,95,0.00,,,0.00,Wunderground PWS Mod,2013-02-25 14:58:00,
2013-02-25 10:04:00,74.6,73.1,29.85,WSW,248,0.0,2.0,95,0.00,,,0.00,Wunderground PWS Mod,2013-02-25 15:04:00,
2013-02-25 10:10:00,74.9,73.4,29.85,WSW,248,0.0,1.0,95,0.00,,,0.00,Wunderground PWS Mod,2013-02-25 15:10:00,
2013-02-25 10:16:00,75.4,73.9,29.85,SSW,200,0.0,1.0,95,0.00,,,0.00,Wunderground PWS Mod,2013-02-25 15:16:00,
2013-02-25 10:22:00,75.8,73.9,29.85,SSW,200,0.0,1.0,94,0.00,,,0.00,Wunderground PWS Mod,2013-02-25 15:22:00,
2013-02-25 10:24:00,77.0,73.2,29.85,SW,225,2.0,4.0,88,0.00,,,0.00,Wunderground PWS Mod,2013-02-25 15:24:00,
2013-02-25 10:28:00,76.1,73.9,29.85,East,90,0.0,2.0,93,0.00,,,0.00,Wunderground PWS Mod,2013-02-25 15:28:00,
2013-02-25 10:34:00,76.7,74.2,29.85,SSE,152,0.0,2.0,92,0.00,,,0.00,Wunderground PWS Mod,2013-02-25 15:34:00,
2013-02-25 10:40:00,76.8,73.3,29.85,WSW,241,0.0,2.0,89,0.00,,,0.00,Wunderground PWS Mod,2013-02-25 15:40:00,
2013-02-25 10:46:00,77.0,72.8,29.85,SW,236,1.0,4.0,87,0.00,,,0.00,Wunderground PWS Mod,2013-02-25 15:46:00,
2013-02-25 10:50:00,80.2,71.9,29.84,South,180,1.0,3.0,76,0.00,,,0.00,Wunderground PWS Mod,2013-02-25 15:50:00,
2013-02-25 10:52:00,77.7,73.2,29.85,SSE,151,1.0,3.0,86,0.00,,,0.00,Wunderground PWS Mod,2013-02-25 15:52:00,
2013-02-25 10:58:00,78.3,73.1,29.85,SSE,164,0.0,1.0,84,0.00,,,0.00,Wunderground PWS Mod,2013-02-25 15:58:00,
2013-02-25 11:04:00,79.2,72.9,29.84,SW,231,1.0,6.0,81,0.00,,,0.00,Wunderground PWS Mod,2013-02-25 16:04:00,
2013-02-25 11:10:00,80.3,71.6,29.84,South,171,1.0,4.0,75,0.00,,,0.00,Wunderground PWS Mod,2013-02-25 16:10:00,
2013-02-25 11:16:00,80.5,70.6,29.84,South,189,2.0,4.0,72,0.00,,,0.00,Wunderground PWS Mod,2013-02-25 16:16:00,
2013-02-25 11:20:00,83.2,70.7,29.83,SSE,158,0.0,1.0,66,0.00,,,0.00,Wunderground PWS Mod,2013-02-25 16:20:00,
2013-02-25 11:22:00,80.5,71.0,29.83,WSW,238,2.0,4.0,73,0.00,,,0.00,Wunderground PWS Mod,2013-02-25 16:22:00,
2013-02-25 11:28:00,81.4,70.7,29.83,SW,223,2.0,4.0,70,0.00,,,0.00,Wunderground PWS Mod,2013-02-25 16:28:00,
2013-02-25 11:34:00,82.8,70.7,29.83,South,182,2.0,5.0,67,0.00,,,0.00,Wunderground PWS Mod,2013-02-25 16:34:00,
2013-02-25 11:40:00,83.2,71.1,29.83,South,173,1.0,3.0,67,0.00,,,0.00,Wunderground PWS Mod,2013-02-25 16:40:00,
2013-02-25 11:46:00,83.8,72.1,29.83,SSW,207,1.0,5.0,68,0.00,,,0.00,Wunderground PWS Mod,2013-02-25 16:46:00,
2013-02-25 11:52:00,84.1,70.1,29.82,SSE,150,1.0,6.0,63,0.00,,,0.00,Wunderground PWS Mod,2013-02-25 16:52:00,
2013-02-25 11:58:00,84.0,69.6,29.82,SSE,167,2.0,6.0,62,0.00,,,0.00,Wunderground PWS Mod,2013-02-25 16:58:00,
2013-02-25 12:04:00,83.8,69.4,29.81,SSE,158,2.0,6.0,62,0.00,,,0.00,Wunderground PWS Mod,2013-02-25 17:04:00,
2013-02-25 12:10:00,84.1,69.2,29.81,WSW,246,2.0,5.0,61,0.00,,,0.00,Wunderground PWS Mod,2013-02-25 17:10:00,
2013-02-25 12:16:00,84.0,69.6,29.81,South,170,2.0,5.0,62,0.00,,,0.00,Wunderground PWS Mod,2013-02-25 17:16:00,
2013-02-25 12:22:00,84.1,70.1,29.80,WNW,287,2.0,6.0,63,0.00,,,0.00,Wunderground PWS Mod,2013-02-25 17:22:00,
2013-02-25 12:28:00,84.0,70.0,29.80,SW,230,2.0,6.0,63,0.00,,,0.00,Wunderground PWS Mod,2013-02-25 17:28:00,
2013-02-25 12:34:00,83.6,68.7,29.80,SSW,209,2.0,6.0,61,0.00,,,0.00,Wunderground PWS Mod,2013-02-25 17:34:00,
2013-02-25 12:40:00,83.4,69.5,29.80,South,184,1.0,3.0,63,0.00,,,0.00,Wunderground PWS Mod,2013-02-25 17:40:00,
2013-02-25 12:46:00,83.0,69.1,29.80,SW,232,1.0,6.0,63,0.00,,,0.00,Wunderground PWS Mod,2013-02-25 17:46:00,
2013-02-25 12:52:00,83.2,69.8,29.80,SE,144,1.0,2.0,64,0.00,,,0.00,Wunderground PWS Mod,2013-02-25 17:52:00,
2013-02-25 12:58:00,83.0,68.6,29.80,WSW,244,1.0,4.0,62,0.00,,,0.00,Wunderground PWS Mod,2013-02-25 17:58:00,
2013-02-25 13:00:00,83.6,67.3,29.79,SW,225,2.0,4.0,58,0.00,,,0.00,Wunderground PWS Mod,2013-02-25 18:00:00,
2013-02-25 13:04:00,83.2,70.2,29.80,SSW,193,2.0,6.0,65,0.00,,,0.00,Wunderground PWS Mod,2013-02-25 18:04:00,
2013-02-25 13:10:00,83.8,70.3,29.80,SSE,167,2.0,4.0,64,0.00,,,0.00,Wunderground PWS Mod,2013-02-25 18:10:00,
2013-02-25 13:16:00,83.8,67.9,29.80,South,178,2.0,6.0,59,0.00,,,0.00,Wunderground PWS Mod,2013-02-25 18:16:00,
2013-02-25 13:22:00,83.4,68.1,29.79,South,186,3.0,6.0,60,0.00,,,0.00,Wunderground PWS Mod,2013-02-25 18:22:00,
2013-02-25 13:28:00,83.0,69.1,29.79,SSW,201,2.0,4.0,63,0.00,,,0.00,Wunderground PWS Mod,2013-02-25 18:28:00,
2013-02-25 13:34:00,83.6,69.2,29.78,South,173,2.0,6.0,62,0.00,,,0.00,Wunderground PWS Mod,2013-02-25 18:34:00,
2013-02-25 13:40:00,83.8,68.9,29.78,South,191,1.0,3.0,61,0.00,,,0.00,Wunderground PWS Mod,2013-02-25 18:40:00,
2013-02-25 13:46:00,83.8,69.4,29.78,South,175,1.0,3.0,62,0.00,,,0.00,Wunderground PWS Mod,2013-02-25 18:46:00,
2013-02-25 13:52:00,83.8,69.9,29.78,SSE,162,2.0,6.0,63,0.00,,,0.00,Wunderground PWS Mod,2013-02-25 18:52:00,
2013-02-25 13:58:00,83.6,69.7,29.78,WSW,252,2.0,7.0,63,0.00,,,0.00,Wunderground PWS Mod,2013-02-25 18:58:00,
2013-02-25 14:04:00,84.0,70.5,29.78,SSW,199,1.0,3.0,64,0.00,,,0.00,Wunderground PWS Mod,2013-02-25 19:04:00,
2013-02-25 14:10:00,83.8,70.3,29.78,South,178,2.0,6.0,64,0.00,,,0.00,Wunderground PWS Mod,2013-02-25 19:10:00,
2013-02-25 14:16:00,83.8,69.9,29.78,SW,232,3.0,7.0,63,0.00,,,0.00,Wunderground PWS Mod,2013-02-25 19:16:00,
2013-02-25 14:22:00,84.0,70.0,29.78,SSE,165,2.0,6.0,63,0.00,,,0.00,Wunderground PWS Mod,2013-02-25 19:22:00,
2013-02-25 14:28:00,83.6,69.7,29.78,SSW,212,2.0,9.0,63,0.00,,,0.00,Wunderground PWS Mod,2013-02-25 19:28:00,
2013-02-25 14:34:00,83.6,70.6,29.78,SW,222,2.0,4.0,65,0.00,,,0.00,Wunderground PWS Mod,2013-02-25 19:34:00,
2013-02-25 14:36:00,82.6,70.1,29.78,South,180,3.0,4.0,66,0.00,,,0.00,Wunderground PWS Mod,2013-02-25 19:36:00,
2013-02-25 14:40:00,83.6,69.7,29.78,SSW,202,2.0,4.0,63,0.00,,,0.00,Wunderground PWS Mod,2013-02-25 19:40:00,
2013-02-25 14:46:00,83.2,69.3,29.78,SSE,158,1.0,5.0,63,0.00,,,0.00,Wunderground PWS Mod,2013-02-25 19:46:00,
2013-02-25 14:52:00,82.8,69.8,29.78,SW,221,1.0,6.0,65,0.00,,,0.00,Wunderground PWS Mod,2013-02-25 19:52:00,
2013-02-25 14:58:00,82.4,70.3,29.78,SSW,203,2.0,6.0,67,0.00,,,0.00,Wunderground PWS Mod,2013-02-25 19:58:00,
2013-02-25 15:04:00,82.8,70.3,29.77,SSE,150,1.0,5.0,66,0.00,,,0.00,Wunderground PWS Mod,2013-02-25 20:04:00,
2013-02-25 15:10:00,82.4,70.8,29.77,SSW,192,1.0,3.0,68,0.00,,,0.00,Wunderground PWS Mod,2013-02-25 20:10:00,
2013-02-25 15:16:00,83.2,71.5,29.77,SSW,192,0.0,1.0,68,0.00,,,0.00,Wunderground PWS Mod,2013-02-25 20:16:00,
2013-02-25 15:22:00,83.8,70.3,29.76,SE,128,0.0,3.0,64,0.00,,,0.00,Wunderground PWS Mod,2013-02-25 20:22:00,
2013-02-25 15:26:00,84.1,69.7,29.76,WSW,248,0.0,3.0,62,0.00,,,0.00,Wunderground PWS Mod,2013-02-25 20:26:00,
2013-02-25 15:28:00,84.0,70.0,29.76,SW,227,1.0,5.0,63,0.00,,,0.00,Wunderground PWS Mod,2013-02-25 20:28:00,
2013-02-25 15:34:00,84.1,70.6,29.76,WSW,238,1.0,4.0,64,0.00,,,0.00,Wunderground PWS Mod,2013-02-25 20:34:00,
2013-02-25 15:40:00,84.3,70.8,29.76,SSW,198,1.0,3.0,64,0.00,,,0.00,Wunderground PWS Mod,2013-02-25 20:40:00,
2013-02-25 15:46:00,84.1,70.1,29.76,SSE,167,1.0,3.0,63,0.00,,,0.00,Wunderground PWS Mod,2013-02-25 20:46:00,
2013-02-25 15:52:00,84.0,70.5,29.75,SW,232,1.0,3.0,64,0.00,,,0.00,Wunderground PWS Mod,2013-02-25 20:52:00,
2013-02-25 15:58:00,83.6,70.6,29.75,WNW,283,1.0,2.0,65,0.00,,,0.00,Wunderground PWS Mod,2013-02-25 20:58:00,
2013-02-25 16:04:00,83.4,69.9,29.75,South,184,1.0,3.0,64,0.00,,,0.00,Wunderground PWS Mod,2013-02-25 21:04:00,
2013-02-25 16:06:00,82.4,69.4,29.75,SW,225,2.0,3.0,65,0.00,,,0.00,Wunderground PWS Mod,2013-02-25 21:06:00,
2013-02-25 16:10:00,83.0,69.1,29.75,SW,234,1.0,4.0,63,0.00,,,0.00,Wunderground PWS Mod,2013-02-25 21:10:00,
2013-02-25 16:16:00,82.6,70.1,29.75,SSW,195,1.0,4.0,66,0.00,,,0.00,Wunderground PWS Mod,2013-02-25 21:16:00,
2013-02-25 16:22:00,82.4,69.4,29.75,South,178,1.0,4.0,65,0.00,,,0.00,Wunderground PWS Mod,2013-02-25 21:22:00,
2013-02-25 16:28:00,82.4,69.9,29.75,South,185,1.0,3.0,66,0.00,,,0.00,Wunderground PWS Mod,2013-02-25 21:28:00,
2013-02-25 16:34:00,82.2,69.7,29.75,South,178,1.0,2.0,66,0.00,,,0.00,Wunderground PWS Mod,2013-02-25 21:34:00,
2013-02-25 16:40:00,82.2,70.1,29.75,SSW,205,0.0,1.0,67,0.00,,,0.00,Wunderground PWS Mod,2013-02-25 21:40:00,
2013-02-25 16:44:00,81.2,70.1,29.75,N/A,-737280,0.0,0.0,69,0.00,,,0.00,Wunderground PWS Mod,2013-02-25 21:44:00,
2013-02-25 16:46:00,82.2,70.1,29.75,South,182,0.0,2.0,67,0.00,,,0.00,Wunderground PWS Mod,2013-02-25 21:46:00,
2013-02-25 16:52:00,81.8,69.8,29.75,WSW,242,0.0,2.0,67,0.00,,,0.00,Wunderground PWS Mod,2013-02-25 21:52:00,
2013-02-25 16:58:00,81.4,69.8,29.75,SW,230,1.0,4.0,68,0.00,,,0.00,Wunderground PWS Mod,2013-02-25 21:58:00,
2013-02-25 17:04:00,81.1,70.0,29.75,South,191,0.0,3.0,69,0.00,,,0.00,Wunderground PWS Mod,2013-02-25 22:04:00,
2013-02-25 17:10:00,80.9,69.8,29.75,SW,230,0.0,3.0,69,0.00,,,0.00,Wunderground PWS Mod,2013-02-25 22:10:00,
2013-02-25 17:16:00,80.7,70.0,29.75,SE,142,0.0,0.0,70,0.00,,,0.00,Wunderground PWS Mod,2013-02-25 22:16:00,
2013-02-25 17:22:00,80.5,70.2,29.75,SSE,147,0.0,0.0,71,0.00,,,0.00,Wunderground PWS Mod,2013-02-25 22:22:00,
2013-02-25 17:24:00,79.6,69.8,29.75,N/A,-737280,0.0,0.0,72,0.00,,,0.00,Wunderground PWS Mod,2013-02-25 22:24:00,
2013-02-25 17:28:00,80.3,70.0,29.75,SSE,153,0.0,0.0,71,0.00,,,0.00,Wunderground PWS Mod,2013-02-25 22:28:00,
2013-02-25 17:34:00,79.9,69.7,29.75,SSE,155,0.0,1.0,71,0.00,,,0.00,Wunderground PWS Mod,2013-02-25 22:34:00,
2013-02-25 17:40:00,79.6,69.8,29.75,SSE,159,0.0,2.0,72,0.00,,,0.00,Wunderground PWS Mod,2013-02-25 22:40:00,
2013-02-25 17:46:00,79.4,69.6,29.75,SSE,159,0.0,1.0,72,0.00,,,0.00,Wunderground PWS Mod,2013-02-25 22:46:00,
2013-02-25 17:52:00,79.0,69.6,29.75,SSE,159,0.0,1.0,73,0.00,,,0.00,Wunderground PWS Mod,2013-02-25 22:52:00,
2013-02-25 17:58:00,78.6,69.6,29.75,SW,220,0.0,1.0,74,0.00,,,0.00,Wunderground PWS Mod,2013-02-25 22:58:00,
2013-02-25 18:04:00,78.3,69.7,29.75,SSW,194,0.0,2.0,75,0.00,,,0.00,Wunderground PWS Mod,2013-02-25 23:04:00,
2013-02-25 18:10:00,78.1,69.9,29.75,SSW,194,0.0,0.0,76,0.00,,,0.00,Wunderground PWS Mod,2013-02-25 23:10:00,
2013-02-25 18:16:00,77.7,69.5,29.75,SSW,194,0.0,1.0,76,0.00,,,0.00,Wunderground PWS Mod,2013-02-25 23:16:00,
2013-02-25 18:22:00,77.4,69.6,29.75,SSW,194,0.0,0.0,77,0.00,,,0.00,Wunderground PWS Mod,2013-02-25 23:22:00,
2013-02-25 18:26:00,75.8,68.8,29.76,N/A,-737280,0.0,0.0,79,0.00,,,0.00,Wunderground PWS Mod,2013-02-25 23:26:00,
2013-02-25 18:28:00,77.0,69.6,29.75,SSW,195,0.0,0.0,78,0.00,,,0.00,Wunderground PWS Mod,2013-02-25 23:28:00,
2013-02-25 18:34:00,76.7,69.7,29.76,SSW,194,0.0,0.0,79,0.00,,,0.00,Wunderground PWS Mod,2013-02-25 23:34:00,
2013-02-25 18:40:00,76.3,69.3,29.76,SSW,194,0.0,0.0,79,0.00,,,0.00,Wunderground PWS Mod,2013-02-25 23:40:00,
2013-02-25 18:46:00,75.8,68.8,29.76,SSW,194,0.0,0.0,79,0.00,,,0.00,Wunderground PWS Mod,2013-02-25 23:46:00,
2013-02-25 18:52:00,75.3,68.7,29.76,SSW,195,0.0,0.0,80,0.00,,,0.00,Wunderground PWS Mod,2013-02-25 23:52:00,
2013-02-25 18:54:00,74.4,68.9,29.76,N/A,-737280,0.0,0.0,83,0.00,,,0.00,Wunderground PWS Mod,2013-02-25 23:54:00,
2013-02-25 18:58:00,75.1,69.2,29.76,SSW,194,0.0,0.0,82,0.00,,,0.00,Wunderground PWS Mod,2013-02-25 23:58:00,
2013-02-25 19:04:00,74.7,68.8,29.76,SSW,194,0.0,0.0,82,0.00,,,0.00,Wunderground PWS Mod,2013-02-26 00:04:00,
2013-02-25 19:10:00,74.6,69.1,29.76,SSW,194,0.0,0.0,83,0.00,,,0.00,Wunderground PWS Mod,2013-02-26 00:10:00,
2013-02-25 19:16:00,74.2,68.7,29.76,SSW,195,0.0,0.0,83,0.00,,,0.00,Wunderground PWS Mod,2013-02-26 00:16:00,
2013-02-25 19:22:00,73.9,68.8,29.77,SSW,194,0.0,0.0,84,0.00,,,0.00,Wunderground PWS Mod,2013-02-26 00:22:00,
2013-02-25 19:28:00,73.7,68.6,29.77,SSW,194,0.0,0.0,84,0.00,,,0.00,Wunderground PWS Mod,2013-02-26 00:28:00,
2013-02-25 19:34:00,73.5,68.7,29.77,SSW,194,0.0,0.0,85,0.00,,,0.00,Wunderground PWS Mod,2013-02-26 00:34:00,
2013-02-25 19:40:00,73.2,68.4,29.77,SSW,194,0.0,0.0,85,0.00,,,0.00,Wunderground PWS Mod,2013-02-26 00:40:00,
2013-02-25 19:46:00,72.8,68.4,29.77,SSW,194,0.0,0.0,86,0.00,,,0.00,Wunderground PWS Mod,2013-02-26 00:46:00,
2013-02-25 19:52:00,72.5,68.1,29.77,SSW,194,0.0,0.0,86,0.00,,,0.00,Wunderground PWS Mod,2013-02-26 00:52:00,
2013-02-25 19:58:00,72.1,68.0,29.77,SSW,194,0.0,0.0,87,0.00,,,0.00,Wunderground PWS Mod,2013-02-26 00:58:00,
2013-02-25 20:04:00,71.8,67.7,29.76,SSW,194,0.0,0.0,87,0.00,,,0.00,Wunderground PWS Mod,2013-02-26 01:04:00,
2013-02-25 20:08:00,71.1,67.0,29.77,N/A,-737280,0.0,0.0,87,0.00,,,0.00,Wunderground PWS Mod,2013-02-26 01:08:00,
2013-02-25 20:10:00,71.6,67.5,29.76,SSW,195,0.0,0.0,87,0.00,,,0.00,Wunderground PWS Mod,2013-02-26 01:10:00,
2013-02-25 20:16:00,71.5,67.4,29.76,SSW,194,0.0,0.0,87,0.00,,,0.00,Wunderground PWS Mod,2013-02-26 01:16:00,
2013-02-25 20:22:00,71.1,67.0,29.77,SSW,195,0.0,0.0,87,0.00,,,0.00,Wunderground PWS Mod,2013-02-26 01:22:00,
2013-02-25 20:28:00,70.9,66.8,29.77,SSW,194,0.0,0.0,87,0.00,,,0.00,Wunderground PWS Mod,2013-02-26 01:28:00,
2013-02-25 20:34:00,70.9,67.2,29.77,SSW,194,0.0,0.0,88,0.00,,,0.00,Wunderground PWS Mod,2013-02-26 01:34:00,
2013-02-25 20:40:00,70.8,67.1,29.77,SSW,194,0.0,0.0,88,0.00,,,0.00,Wunderground PWS Mod,2013-02-26 01:40:00,
2013-02-25 20:46:00,70.6,67.2,29.77,SSW,194,0.0,0.0,89,0.00,,,0.00,Wunderground PWS Mod,2013-02-26 01:46:00,
2013-02-25 20:52:00,70.4,67.0,29.77,SSW,194,0.0,0.0,89,0.00,,,0.00,Wunderground PWS Mod,2013-02-26 01:52:00,
2013-02-25 20:58:00,70.4,67.0,29.77,SSW,195,0.0,0.0,89,0.00,,,0.00,Wunderground PWS Mod,2013-02-26 01:58:00,
2013-02-25 21:04:00,70.3,66.9,29.77,SSW,194,0.0,0.0,89,0.00,,,0.00,Wunderground PWS Mod,2013-02-26 02:04:00,
2013-02-25 21:10:00,70.3,67.2,29.77,SSW,194,0.0,0.0,90,0.00,,,0.00,Wunderground PWS Mod,2013-02-26 02:10:00,
2013-02-25 21:16:00,70.3,67.2,29.77,SSW,194,0.0,0.0,90,0.00,,,0.00,Wunderground PWS Mod,2013-02-26 02:16:00,
2013-02-25 21:18:00,69.9,66.8,29.78,N/A,-737280,0.0,0.0,90,0.00,,,0.00,Wunderground PWS Mod,2013-02-26 02:18:00,
2013-02-25 21:22:00,70.1,67.0,29.78,SSW,194,0.0,0.0,90,0.00,,,0.00,Wunderground PWS Mod,2013-02-26 02:22:00,
2013-02-25 21:28:00,69.9,66.8,29.78,SSW,194,0.0,0.0,90,0.00,,,0.00,Wunderground PWS Mod,2013-02-26 02:28:00,
2013-02-25 21:34:00,69.9,66.8,29.78,SSW,194,0.0,0.0,90,0.00,,,0.00,Wunderground PWS Mod,2013-02-26 02:34:00,
2013-02-25 21:40:00,69.8,66.7,29.78,SSW,195,0.0,0.0,90,0.00,,,0.00,Wunderground PWS Mod,2013-02-26 02:40:00,
2013-02-25 21:44:00,69.9,67.5,29.78,N/A,-737280,0.0,0.0,92,0.00,,,0.00,Wunderground PWS Mod,2013-02-26 02:44:00,
2013-02-25 21:46:00,69.6,66.5,29.78,SSW,194,0.0,0.0,90,0.00,,,0.00,Wunderground PWS Mod,2013-02-26 02:46:00,
2013-02-25 21:52:00,69.8,67.1,29.78,SSW,195,0.0,0.0,91,0.00,,,0.00,Wunderground PWS Mod,2013-02-26 02:52:00,
2013-02-25 21:58:00,69.8,67.1,29.78,SSW,194,0.0,0.0,91,0.00,,,0.00,Wunderground PWS Mod,2013-02-26 02:58:00,
2013-02-25 22:04:00,70.1,67.3,29.77,SSW,194,0.0,0.0,91,0.00,,,0.00,Wunderground PWS Mod,2013-02-26 03:04:00,
2013-02-25 22:10:00,70.1,67.7,29.77,SSW,194,0.0,0.0,92,0.00,,,0.00,Wunderground PWS Mod,2013-02-26 03:10:00,
2013-02-25 22:16:00,70.1,67.7,29.77,SSW,194,0.0,0.0,92,0.00,,,0.00,Wunderground PWS Mod,2013-02-26 03:16:00,
2013-02-25 22:22:00,70.3,67.9,29.78,SSW,194,0.0,0.0,92,0.00,,,0.00,Wunderground PWS Mod,2013-02-26 03:22:00,
2013-02-25 22:28:00,70.4,68.0,29.78,SSW,194,0.0,0.0,92,0.00,,,0.00,Wunderground PWS Mod,2013-02-26 03:28:00,
2013-02-25 22:34:00,70.4,68.0,29.78,SSW,195,0.0,0.0,92,0.00,,,0.00,Wunderground PWS Mod,2013-02-26 03:34:00,
2013-02-25 22:40:00,70.6,68.5,29.78,SSW,194,0.0,0.0,93,0.00,,,0.00,Wunderground PWS Mod,2013-02-26 03:40:00,
2013-02-25 22:44:00,70.9,68.5,29.78,N/A,-737280,0.0,0.0,92,0.00,,,0.00,Wunderground PWS Mod,2013-02-26 03:44:00,
2013-02-25 22:46:00,70.8,68.7,29.78,SSW,194,0.0,0.0,93,0.00,,,0.00,Wunderground PWS Mod,2013-02-26 03:46:00,
2013-02-25 22:52:00,70.8,68.7,29.78,SSW,194,0.0,0.0,93,0.00,,,0.00,Wunderground PWS Mod,2013-02-26 03:52:00,
2013-02-25 22:58:00,70.9,68.8,29.78,SSW,194,0.0,0.0,93,0.00,,,0.00,Wunderground PWS Mod,2013-02-26 03:58:00,
2013-02-25 23:04:00,70.9,68.5,29.79,SSW,194,0.0,0.0,92,0.00,,,0.00,Wunderground PWS Mod,2013-02-26 04:04:00,
2013-02-25 23:08:00,70.9,68.8,29.78,N/A,-737280,0.0,0.0,93,0.00,,,0.00,Wunderground PWS Mod,2013-02-26 04:08:00,
2013-02-25 23:10:00,70.8,68.4,29.79,SSW,194,0.0,0.0,92,0.00,,,0.00,Wunderground PWS Mod,2013-02-26 04:10:00,
2013-02-25 23:16:00,70.8,68.4,29.79,SSW,195,0.0,0.0,92,0.00,,,0.00,Wunderground PWS Mod,2013-02-26 04:16:00,
2013-02-25 23:22:00,70.8,68.7,29.79,SSW,194,0.0,0.0,93,0.00,,,0.00,Wunderground PWS Mod,2013-02-26 04:22:00,
2013-02-25 23:28:00,70.9,68.8,29.79,SSW,195,0.0,0.0,93,0.00,,,0.00,Wunderground PWS Mod,2013-02-26 04:28:00,
2013-02-25 23:32:00,71.1,69.0,29.78,N/A,-737280,0.0,0.0,93,0.00,,,0.00,Wunderground PWS Mod,2013-02-26 04:32:00,
2013-02-25 23:34:00,70.9,68.8,29.79,SSW,194,0.0,0.0,93,0.00,,,0.00,Wunderground PWS Mod,2013-02-26 04:34:00,
2013-02-25 23:40:00,70.9,68.8,29.79,SSW,194,0.0,0.0,93,0.00,,,0.00,Wunderground PWS Mod,2013-02-26 04:40:00,
2013-02-25 23:46:00,70.9,68.8,29.79,SSW,194,0.0,0.0,93,0.00,,,0.00,Wunderground PWS Mod,2013-02-26 04:46:00,
2013-02-25 23:52:00,71.1,69.0,29.79,SSW,195,0.0,0.0,93,0.00,,,0.00,Wunderground PWS Mod,2013-02-26 04:52:00,
2013-02-25 23:58:00,71.1,69.0,29.79,SSW,194,0.0,0.0,93,0.00,,,0.00,Wunderground PWS Mod,2013-02-26 04:58:00,